Time;durP1;ratioP1;P1;durP2;ratioP2;P2;SDS_P1;SDS_P2;PMS_P1;PMS_P2;Temp;Humidity;BMP_temperature;BMP_pressure;BME280_temperature;BME280_humidity;BME280_pressure;Samples;Min_cycle;Max_cycle;Signal;HPM_P1;HPM_P2
2023/04/28 05:02:47;;;;;;;6.22;4.45;;;12.40;99.90;;;;;;5306527;23;20069;-69
2023/04/28 05:05:16;;;;;;;7.68;4.68;;;12.30;99.90;;;;;;4965644;28;20031;-70
2023/04/28 05:07:42;;;;;;;6.97;4.82;;;12.20;99.90;;;;;;4966296;28;20085;-69
2023/04/28 05:10:10;;;;;;;7.43;4.65;;;12.20;99.90;;;;;;4971263;28;20027;-68
2023/04/28 05:12:39;;;;;;;9.48;4.95;;;12.20;99.90;;;;;;4967257;28;20220;-70
2023/04/28 05:15:06;;;;;;;6.68;4.20;;;12.20;99.90;;;;;;4984130;28;20023;-69
2023/04/28 05:17:35;;;;;;;8.13;4.65;;;12.10;99.90;;;;;;4966619;28;20031;-69
2023/04/28 05:20:00;;;;;;;8.90;4.88;;;12.10;99.90;;;;;;4975287;28;20089;-70
2023/04/28 05:22:26;;;;;;;10.80;4.78;;;12.20;99.90;;;;;;4983026;28;20350;-70
2023/04/28 05:24:52;;;;;;;8.35;4.97;;;12.30;99.90;;;;;;4982978;28;20030;-70
2023/04/28 05:27:18;;;;;;;7.50;4.82;;;12.30;99.90;;;;;;4983286;28;20209;-70
2023/04/28 05:29:44;;;;;;;7.55;4.82;;;12.30;99.90;;;;;;4982539;28;20033;-70
2023/04/28 05:32:10;;;;;;;8.57;5.15;;;12.40;99.90;;;;;;4982197;28;20152;-71
2023/04/28 05:34:36;;;;;;;7.68;5.00;;;12.50;99.90;;;;;;4982674;28;20031;-70
2023/04/28 05:37:01;;;;;;;10.40;5.60;;;12.50;99.90;;;;;;4968119;28;20023;-70
2023/04/28 05:39:29;;;;;;;9.85;5.85;;;12.50;99.90;;;;;;4966108;28;20035;-70
2023/04/28 05:41:57;;;;;;;10.80;6.63;;;12.60;99.90;;;;;;4966366;28;20027;-70
2023/04/28 05:44:23;;;;;;;9.25;5.35;;;12.60;99.90;;;;;;4983025;28;20129;-71
2023/04/28 05:46:49;;;;;;;9.82;6.00;;;12.50;99.90;;;;;;4966511;28;20073;-69
2023/04/28 05:49:20;;;;;;;10.13;6.18;;;12.50;99.90;;;;;;4966152;28;20022;-69
2023/04/28 05:51:45;;;;;;;9.68;5.90;;;12.60;99.90;;;;;;4986039;28;20023;-69
2023/04/28 05:54:11;;;;;;;10.48;5.32;;;12.60;99.90;;;;;;4969315;28;20037;-69
2023/04/28 05:56:42;;;;;;;8.95;5.30;;;12.60;99.90;;;;;;4970006;28;20031;-68
2023/04/28 05:59:08;;;;;;;9.90;5.65;;;12.70;99.90;;;;;;4972347;28;20039;-71
2023/04/28 06:01:35;;;;;;;9.07;5.10;;;12.70;99.90;;;;;;4984681;28;20015;-69
2023/04/28 06:04:00;;;;;;;9.65;5.32;;;12.70;99.90;;;;;;4969716;28;20030;-69
2023/04/28 06:06:26;;;;;;;10.18;6.45;;;12.70;99.90;;;;;;4984884;28;20070;-69
2023/04/28 06:08:53;;;;;;;12.15;6.88;;;12.50;99.90;;;;;;4969394;28;20110;-69
2023/04/28 06:11:21;;;;;;;10.32;6.78;;;12.50;99.90;;;;;;4977603;28;20031;-69
2023/04/28 06:13:48;;;;;;;;;;;12.30;99.90;;;;;;4967182;28;20031;-71
2023/04/28 06:16:15;;;;;;;11.90;6.63;;;12.20;99.90;;;;;;4986258;28;19985;-71
2023/04/28 06:18:41;;;;;;;11.27;6.57;;;12.20;99.90;;;;;;4975041;28;20026;-71
2023/04/28 06:21:07;;;;;;;12.98;6.63;;;12.10;99.90;;;;;;4986697;28;20070;-71
2023/04/28 06:23:33;;;;;;;11.63;6.72;;;12.10;99.90;;;;;;4982850;28;20049;-70
2023/04/28 06:25:59;;;;;;;9.25;6.22;;;12.00;99.90;;;;;;4952676;29;20035;-70
2023/04/28 06:28:24;;;;;;;9.73;6.82;;;12.10;99.90;;;;;;4966822;28;20042;-71
2023/04/28 06:30:52;;;;;;;7.95;5.88;;;12.10;99.90;;;;;;4967314;28;20030;-71
2023/04/28 06:33:17;;;;;;;8.07;5.93;;;12.10;99.90;;;;;;4965424;29;20027;-71
2023/04/28 06:35:44;;;;;;;12.45;6.78;;;12.10;99.90;;;;;;4965705;29;20035;-71
2023/04/28 06:38:10;;;;;;;7.78;5.78;;;12.10;99.90;;;;;;4966986;28;20253;-71
2023/04/28 06:40:36;;;;;;;12.68;6.88;;;12.00;99.90;;;;;;4976134;28;20091;-71
2023/04/28 06:43:04;;;;;;;8.45;6.13;;;11.90;99.90;;;;;;4968955;28;20045;-71
2023/04/28 06:45:51;;;;;;;10.90;6.82;;;12.00;99.90;;;;;;4969135;28;20061;-71
2023/04/28 06:48:17;;;;;;;10.70;6.60;;;11.90;99.90;;;;;;4972864;28;20325;-70
2023/04/28 06:50:42;;;;;;;13.18;7.15;;;11.90;99.90;;;;;;4966796;28;20091;-70
2023/04/28 06:53:08;;;;;;;11.70;7.80;;;11.90;99.90;;;;;;4966737;28;20027;-69
2023/04/28 06:55:34;;;;;;;13.15;7.03;;;11.90;99.90;;;;;;4965686;28;20312;-69
2023/04/28 06:58:00;;;;;;;12.55;7.30;;;11.80;99.90;;;;;;4965063;28;20051;-69
2023/04/28 07:00:26;;;;;;;11.65;7.70;;;11.80;99.90;;;;;;4979408;28;20114;-69
2023/04/28 07:02:51;;;;;;;14.45;7.85;;;11.90;99.90;;;;;;4978414;28;20138;-68
2023/04/28 07:05:17;;;;;;;12.30;8.00;;;11.90;99.90;;;;;;4985323;28;20035;-69
2023/04/28 07:07:43;;;;;;;10.93;6.78;;;11.90;99.90;;;;;;4985611;28;20031;-70
2023/04/28 07:10:10;;;;;;;11.48;7.18;;;11.90;99.90;;;;;;4979370;28;20054;-70
2023/04/28 07:12:35;;;;;;;13.95;7.28;;;11.90;99.90;;;;;;4964954;29;20035;-69
2023/04/28 07:15:01;;;;;;;10.50;6.80;;;12.10;99.90;;;;;;4965706;29;20043;-69
2023/04/28 07:17:27;;;;;;;11.70;7.25;;;12.10;99.90;;;;;;4965763;28;20035;-69
2023/04/28 07:19:53;;;;;;;11.05;7.45;;;12.20;99.90;;;;;;4966478;28;20035;-70
2023/04/28 07:22:18;;;;;;;12.50;6.60;;;12.20;99.90;;;;;;4965760;29;20039;-69
2023/04/28 07:24:44;;;;;;;11.63;7.07;;;12.30;99.90;;;;;;4966134;29;20031;-70
2023/04/28 07:27:10;;;;;;;11.15;6.82;;;12.30;99.90;;;;;;4965839;28;20051;-69
2023/04/28 07:29:36;;;;;;;11.73;7.30;;;12.40;99.90;;;;;;4965707;29;20039;-69
2023/04/28 07:32:03;;;;;;;12.20;6.75;;;12.40;99.90;;;;;;4965799;29;20039;-72
2023/04/28 07:34:29;;;;;;;12.18;7.20;;;12.40;99.90;;;;;;4966826;28;20019;-70
2023/04/28 07:36:57;;;;;;;12.50;6.80;;;12.50;99.90;;;;;;4965387;28;20038;-69
2023/04/28 07:39:22;;;;;;;13.18;6.32;;;12.60;99.90;;;;;;4965071;28;20043;-70
2023/04/28 07:41:48;;;;;;;11.05;6.90;;;12.70;99.90;;;;;;4964276;29;20360;-70
2023/04/28 07:44:14;;;;;;;11.45;6.70;;;12.70;99.90;;;;;;4965587;28;20098;-70
2023/04/28 07:46:39;;;;;;;12.05;7.13;;;12.70;99.90;;;;;;4965246;28;20340;-70
2023/04/28 07:49:07;;;;;;;11.93;6.90;;;12.70;99.90;;;;;;4965805;28;20082;-70
2023/04/28 07:51:32;;;;;;;10.20;6.55;;;12.70;99.90;;;;;;4965114;28;20241;-70
2023/04/28 07:53:58;;;;;;;11.25;7.53;;;12.80;99.90;;;;;;4965731;28;20090;-73
2023/04/28 07:56:25;;;;;;;11.48;6.82;;;12.80;99.90;;;;;;4963653;28;20335;-69
2023/04/28 07:58:51;;;;;;;13.93;7.30;;;12.80;99.90;;;;;;4953041;29;20321;-70
2023/04/28 08:01:17;;;;;;;12.35;6.93;;;12.80;99.90;;;;;;4953701;29;20041;-70
2023/04/28 08:03:43;;;;;;;12.25;6.88;;;12.90;99.90;;;;;;4965375;28;20062;-70
2023/04/28 08:06:09;;;;;;;11.32;7.38;;;12.90;99.90;;;;;;4965165;29;20086;-70
2023/04/28 08:08:34;;;;;;;11.20;7.32;;;12.80;99.90;;;;;;4964861;29;20091;-69
2023/04/28 08:11:00;;;;;;;11.75;7.10;;;12.80;99.90;;;;;;4964937;29;20031;-69
2023/04/28 08:13:27;;;;;;;11.43;7.32;;;12.80;99.90;;;;;;4964497;28;20031;-69
2023/04/28 08:15:55;;;;;;;11.73;7.70;;;12.80;99.90;;;;;;4948098;29;20074;-70
2023/04/28 08:18:21;;;;;;;13.77;7.33;;;12.80;99.90;;;;;;4964826;28;20035;-70
2023/04/28 08:20:47;;;;;;;13.90;7.38;;;12.80;99.90;;;;;;4964888;28;20321;-70
2023/04/28 08:23:13;;;;;;;17.52;8.65;;;12.90;99.90;;;;;;4965143;28;20041;-70
2023/04/28 08:25:38;;;;;;;11.93;6.43;;;13.00;99.90;;;;;;4964765;29;20105;-70
2023/04/28 08:28:05;;;;;;;11.68;7.50;;;13.00;99.90;;;;;;4967200;29;20031;-70
2023/04/28 08:30:31;;;;;;;11.90;7.85;;;13.00;99.90;;;;;;4964562;28;20061;-70
2023/04/28 08:32:57;;;;;;;12.70;8.07;;;13.00;99.90;;;;;;4965021;28;20035;-70
2023/04/28 08:35:22;;;;;;;15.57;8.10;;;12.90;99.90;;;;;;4964442;29;20336;-70
2023/04/28 08:37:48;;;;;;;11.13;7.15;;;12.80;99.90;;;;;;4963802;29;20050;-70
2023/04/28 08:40:14;;;;;;;14.18;7.53;;;12.70;99.90;;;;;;4963726;29;20039;-69
2023/04/28 08:42:40;;;;;;;10.45;6.78;;;12.70;99.90;;;;;;4964340;28;20241;-70
2023/04/28 08:45:07;;;;;;;10.02;7.43;;;12.80;99.90;;;;;;4964695;28;20030;-69
2023/04/28 08:47:35;;;;;;;7.70;5.95;;;12.80;99.90;;;;;;4964162;28;20046;-70
2023/04/28 08:50:02;;;;;;;;;;;12.90;99.90;;;;;;4965460;28;20031;-69
2023/04/28 08:52:29;;;;;;;9.45;6.60;;;13.20;99.90;;;;;;4964167;28;19902;-69
2023/04/28 08:55:01;;;;;;;6.95;5.28;;;13.40;99.90;;;;;;4964590;28;20297;-69
2023/04/28 08:57:34;;;;;;;10.30;6.32;;;13.60;99.90;;;;;;4964194;28;20094;-69
2023/04/28 09:00:01;;;;;;;10.60;7.13;;;13.60;99.90;;;;;;4964601;28;20035;-69
2023/04/28 09:02:26;;;;;;;10.88;6.47;;;13.70;99.90;;;;;;4963577;28;20069;-69
2023/04/28 09:04:52;;;;;;;11.20;6.57;;;13.70;99.90;;;;;;4964583;28;20325;-69
2023/04/28 09:07:18;;;;;;;10.07;6.85;;;13.80;99.90;;;;;;4964496;28;20031;-69
2023/04/28 09:09:44;;;;;;;9.50;6.18;;;13.90;99.90;;;;;;4964141;28;20309;-70
2023/04/28 09:12:10;;;;;;;13.75;7.38;;;13.90;99.90;;;;;;4964524;28;20035;-70
2023/04/28 09:14:37;;;;;;;11.65;6.72;;;14.00;99.90;;;;;;4963985;29;20023;-69
2023/04/28 09:17:13;;;;;;;12.37;6.90;;;14.00;99.90;;;;;;4964471;28;20264;-70
2023/04/28 09:19:41;;;;;;;12.00;6.75;;;14.10;99.90;;;;;;4973163;28;20099;-70
2023/04/28 09:22:08;;;;;;;9.02;6.40;;;14.10;99.90;;;;;;4964414;29;20039;-69
2023/04/28 09:24:35;;;;;;;9.90;6.20;;;14.30;99.90;;;;;;4964015;28;20031;-70
2023/04/28 09:27:04;;;;;;;10.13;6.13;;;14.30;99.90;;;;;;4967614;28;20015;-69
2023/04/28 09:29:31;;;;;;;8.70;5.70;;;14.40;99.90;;;;;;4968001;28;20383;-70
2023/04/28 09:32:13;;;;;;;12.00;6.45;;;14.50;99.90;;;;;;4967894;28;20031;-69
2023/04/28 09:34:45;;;;;;;8.23;5.70;;;14.50;99.90;;;;;;4966645;29;20374;-70
2023/04/28 09:37:16;;;;;;;9.20;5.68;;;14.60;99.90;;;;;;4968178;28;20317;-69
2023/04/28 09:39:44;;;;;;;9.18;6.20;;;14.70;99.90;;;;;;4967588;28;20054;-70
2023/04/28 09:42:09;;;;;;;7.70;4.88;;;14.90;99.90;;;;;;4967869;28;20288;-70
2023/04/28 09:44:35;;;;;;;7.03;5.00;;;15.10;99.90;;;;;;4966521;29;20043;-69
2023/04/28 09:47:21;;;;;;;7.28;4.55;;;15.30;99.90;;;;;;4967872;28;20094;-70
2023/04/28 09:49:57;;;;;;;6.90;3.97;;;15.70;99.90;;;;;;4968009;28;20023;-70
2023/04/28 09:52:23;;;;;;;7.22;4.47;;;16.10;99.90;;;;;;4967417;28;20356;-69
2023/04/28 09:54:54;;;;;;;6.22;3.95;;;16.30;99.90;;;;;;4967905;28;20030;-70
2023/04/28 09:57:21;;;;;;;6.50;3.97;;;16.60;99.90;;;;;;4958505;28;20213;-70
2023/04/28 09:59:51;;;;;;;6.60;4.13;;;16.90;99.90;;;;;;4963444;29;20031;-70
2023/04/28 10:02:19;;;;;;;8.10;4.32;;;17.20;99.90;;;;;;4967199;28;20098;-70
2023/04/28 10:04:46;;;;;;;6.95;3.83;;;17.50;99.90;;;;;;4967827;28;20035;-70
2023/04/28 10:07:15;;;;;;;8.63;4.17;;;17.80;99.90;;;;;;4967672;28;20266;-71
2023/04/28 10:09:43;;;;;;;10.18;4.85;;;18.10;99.90;;;;;;4967069;28;20332;-70
2023/04/28 10:12:13;;;;;;;11.35;4.93;;;18.30;99.90;;;;;;4967470;29;20094;-70
2023/04/28 10:14:39;;;;;;;8.38;4.22;;;18.90;99.90;;;;;;4967206;28;20279;-70
2023/04/28 10:17:06;;;;;;;7.40;4.40;;;19.30;99.90;;;;;;4966989;29;20291;-82
2023/04/28 10:19:33;;;;;;;6.60;3.78;;;19.20;99.90;;;;;;4967077;29;20031;-71
2023/04/28 10:22:39;;;;;;;10.20;4.43;;;19.10;99.90;;;;;;4967251;28;20055;-70
2023/04/28 10:25:11;;;;;;;9.60;4.78;;;18.90;99.90;;;;;;4956920;29;20098;-70
2023/04/28 10:27:47;;;;;;;7.80;4.25;;;19.00;99.90;;;;;;4966915;29;20019;-70
2023/04/28 10:30:23;;;;;;;7.65;3.80;;;19.40;99.90;;;;;;4967359;28;20042;-70
2023/04/28 10:33:10;;;;;;;7.03;4.00;;;19.30;99.90;;;;;;4966975;28;20105;-70
2023/04/28 10:35:42;;;;;;;7.87;3.83;;;19.70;99.90;;;;;;4966506;28;20066;-70
2023/04/28 10:38:09;;;;;;;5.80;3.83;;;20.10;99.90;;;;;;4966600;28;20102;-68
2023/04/28 10:40:38;;;;;;;7.22;4.32;;;20.60;99.90;;;;;;4966133;29;20046;-69
2023/04/28 10:43:05;;;;;;;8.20;4.05;;;20.40;99.90;;;;;;4966909;29;20035;-70
2023/04/28 10:45:53;;;;;;;6.40;3.30;;;20.40;99.90;;;;;;4966066;29;20253;-70
2023/04/28 10:48:19;;;;;;;7.00;3.90;;;20.10;99.90;;;;;;4966784;29;20071;-70
2023/04/28 10:51:14;;;;;;;6.97;4.32;;;20.10;99.90;;;;;;4967121;28;20091;-69
2023/04/28 10:53:46;;;;;;;6.68;4.68;;;20.00;99.90;;;;;;4944835;28;20047;-72
2023/04/28 10:56:13;;;;;;;27.23;17.58;;;20.10;99.90;;;;;;4966794;28;20264;-72
2023/04/28 10:58:45;;;;;;;17.98;12.32;;;20.00;99.90;;;;;;4967311;28;20059;-72
2023/04/28 11:01:27;;;;;;;6.00;3.67;;;20.00;99.90;;;;;;4966638;29;20043;-71
2023/04/28 11:04:01;;;;;;;2.92;1.60;;;20.10;99.90;;;;;;4935516;29;20338;-73
2023/04/28 11:06:33;;;;;;;3.00;1.50;;;20.20;99.90;;;;;;4946650;29;20279;-73
2023/04/28 11:09:19;;;;;;;3.85;1.80;;;20.20;99.90;;;;;;4947188;29;20043;-72
2023/04/28 11:12:04;;;;;;;3.08;1.15;;;20.60;99.90;;;;;;4915548;29;20339;-71
2023/04/28 11:14:33;;;;;;;3.25;0.95;;;20.40;99.90;;;;;;4945741;29;20107;-72
2023/04/28 11:17:07;;;;;;;2.50;1.75;;;20.70;99.90;;;;;;4957013;29;20102;-71
2023/04/28 11:19:35;;;;;;;2.95;1.50;;;21.20;99.90;;;;;;4948477;29;20039;-70
2023/04/28 11:22:12;;;;;;;1.83;0.50;;;21.20;99.90;;;;;;4948780;29;20047;-70
2023/04/28 11:24:38;;;;;;;0.98;0.28;;;20.60;99.90;;;;;;4946459;29;20095;-70
2023/04/28 11:27:04;;;;;;;1.08;0.35;;;20.30;99.90;;;;;;4946756;29;20254;-70
2023/04/28 11:29:34;;;;;;;1.10;0.30;;;20.10;99.90;;;;;;4946192;29;20046;-70
2023/04/28 11:32:01;;;;;;;1.98;0.30;;;20.10;99.90;;;;;;4946857;29;20097;-69
2023/04/28 11:34:27;;;;;;;1.58;0.20;;;20.30;99.90;;;;;;4946015;29;20039;-70
2023/04/28 11:36:53;;;;;;;1.40;0.30;;;20.10;99.90;;;;;;4946810;29;20054;-70
2023/04/28 11:39:29;;;;;;;1.83;0.43;;;20.30;99.90;;;;;;4929287;29;20094;-69
2023/04/28 11:41:56;;;;;;;1.85;0.40;;;20.70;99.90;;;;;;4946712;29;20047;-69
2023/04/28 11:44:24;;;;;;;1.30;0.30;;;20.90;99.90;;;;;;4946157;29;20032;-71
2023/04/28 11:46:54;;;;;;;0.80;0.20;;;21.30;99.90;;;;;;4946560;29;20023;-71
2023/04/28 11:49:24;;;;;;;0.80;0.20;;;21.10;99.90;;;;;;4945059;29;20035;-71
2023/04/28 11:51:51;;;;;;;3.10;0.40;;;20.80;99.90;;;;;;4945942;29;20339;-70
2023/04/28 11:54:27;;;;;;;1.50;0.32;;;21.00;99.90;;;;;;4946406;29;20039;-72
2023/04/28 11:56:55;;;;;;;1.17;0.20;;;21.30;99.90;;;;;;4941143;29;20075;-75
2023/04/28 11:59:29;;;;;;;1.00;0.30;;;21.50;99.90;;;;;;4942863;29;20199;-73
2023/04/28 12:02:02;;;;;;;0.85;0.25;;;21.90;99.90;;;;;;4950688;29;20542;-74
2023/04/28 12:04:36;;;;;;;1.20;0.30;;;21.90;99.70;;;;;;4963662;29;20225;-71
2023/04/28 12:07:09;;;;;;;0.50;0.15;;;21.40;99.80;;;;;;4965403;28;20042;-73
2023/04/28 12:09:36;;;;;;;1.85;0.28;;;21.30;99.90;;;;;;4964491;29;20273;-72
2023/04/28 12:12:04;;;;;;;0.38;0.20;;;20.80;99.90;;;;;;4965312;29;20094;-72
2023/04/28 12:14:34;;;;;;;0.85;0.20;;;20.70;99.90;;;;;;4964770;28;20082;-73
2023/04/28 12:17:00;;;;;;;1.50;0.40;;;20.60;99.90;;;;;;4965257;28;20046;-73
2023/04/28 12:19:26;;;;;;;0.38;0.10;;;20.90;99.90;;;;;;4964589;28;20031;-72
2023/04/28 12:22:18;;;;;;;0.73;0.30;;;21.30;99.10;;;;;;4965429;28;20035;-71
2023/04/28 12:24:45;;;;;;;0.95;0.20;;;21.60;99.50;;;;;;4961776;29;20066;-73
2023/04/28 12:27:24;;;;;;;1.38;0.40;;;21.30;99.00;;;;;;4963815;29;20090;-70
2023/04/28 12:29:50;;;;;;;1.23;0.28;;;21.30;98.20;;;;;;4964887;28;20096;-74
2023/04/28 12:32:17;;;;;;;2.45;0.75;;;21.00;99.00;;;;;;4964964;28;20274;-73
2023/04/28 12:34:45;;;;;;;0.95;0.40;;;20.90;98.90;;;;;;4964642;28;20047;-73
2023/04/28 12:37:11;;;;;;;1.38;0.20;;;20.90;98.80;;;;;;4964915;29;20042;-72
2023/04/28 12:39:39;;;;;;;1.77;0.30;;;20.90;98.40;;;;;;4964041;29;20043;-72
2023/04/28 12:42:05;;;;;;;;;;;20.60;99.30;;;;;;4965138;28;20035;-72
2023/04/28 12:44:34;;;;;;;1.83;0.40;;;20.40;99.50;;;;;;4964416;28;19913;-73
2023/04/28 12:47:01;;;;;;;1.10;0.30;;;20.20;99.90;;;;;;4965004;28;20058;-71
2023/04/28 12:49:27;;;;;;;1.83;0.30;;;20.20;99.90;;;;;;4962953;29;20321;-72
2023/04/28 12:51:53;;;;;;;1.55;0.50;;;20.20;99.90;;;;;;4964817;29;20050;-73
2023/04/28 12:54:19;;;;;;;4.20;0.52;;;19.90;99.90;;;;;;4964555;29;20164;-73
2023/04/28 12:56:45;;;;;;;7.05;0.85;;;19.50;99.90;;;;;;4955980;28;20051;-73
2023/04/28 12:59:10;;;;;;;2.05;0.40;;;19.10;99.90;;;;;;4960256;29;20050;-72
2023/04/28 13:01:36;;;;;;;0.63;0.20;;;18.80;99.90;;;;;;4962957;28;20083;-73
2023/04/28 13:04:02;;;;;;;2.08;0.50;;;18.70;99.90;;;;;;4964590;29;20034;-71
2023/04/28 13:06:28;;;;;;;2.25;0.30;;;18.60;99.90;;;;;;4964165;29;20039;-71
2023/04/28 13:08:54;;;;;;;0.95;0.30;;;18.60;99.90;;;;;;4964462;29;20045;-70
2023/04/28 13:11:20;;;;;;;1.13;0.40;;;18.60;99.90;;;;;;4951634;29;20047;-73
2023/04/28 13:13:45;;;;;;;2.22;0.40;;;18.70;99.90;;;;;;4962287;29;20031;-72
2023/04/28 13:16:13;;;;;;;0.82;0.30;;;18.90;99.90;;;;;;4963296;29;20099;-72
2023/04/28 13:18:39;;;;;;;1.10;0.40;;;19.10;99.90;;;;;;4962999;29;20229;-72
2023/04/28 13:21:04;;;;;;;2.08;0.35;;;19.30;99.90;;;;;;4964376;28;20043;-72
2023/04/28 13:23:30;;;;;;;1.17;0.32;;;19.50;99.90;;;;;;4963836;29;20392;-71
2023/04/28 13:25:56;;;;;;;1.98;0.30;;;19.80;99.90;;;;;;4964377;29;20043;-71
2023/04/28 13:28:21;;;;;;;1.80;0.43;;;20.20;99.90;;;;;;4964325;28;20047;-72
2023/04/28 13:30:47;;;;;;;1.02;0.22;;;20.30;99.90;;;;;;4964085;28;20058;-72
2023/04/28 13:33:13;;;;;;;1.85;0.40;;;20.50;99.90;;;;;;4963216;29;20035;-72
2023/04/28 13:35:39;;;;;;;1.20;0.30;;;20.70;99.90;;;;;;4962927;29;20105;-73
2023/04/28 13:38:05;;;;;;;0.98;0.43;;;20.70;99.90;;;;;;4964878;28;20051;-70
2023/04/28 13:40:32;;;;;;;1.10;0.30;;;20.60;99.90;;;;;;4964118;28;20039;-72
2023/04/28 13:42:58;;;;;;;1.42;0.50;;;20.50;99.90;;;;;;4964928;28;20047;-71
2023/04/28 13:45:25;;;;;;;1.10;0.30;;;20.20;99.90;;;;;;4964031;29;20031;-72
2023/04/28 13:47:50;;;;;;;1.30;0.40;;;19.90;99.90;;;;;;4964621;29;20043;-72
2023/04/28 13:50:16;;;;;;;1.95;0.63;;;19.70;99.90;;;;;;4964303;29;20034;-72
2023/04/28 13:52:42;;;;;;;2.10;0.60;;;19.30;99.90;;;;;;4964174;29;20063;-75
2023/04/28 13:55:08;;;;;;;5.68;1.25;;;18.90;99.90;;;;;;4960278;29;20059;-72
2023/04/28 13:57:34;;;;;;;2.90;0.30;;;18.60;99.90;;;;;;4945656;29;20046;-73
2023/04/28 14:00:00;;;;;;;2.45;0.38;;;18.40;99.90;;;;;;4961146;28;20040;-73
2023/04/28 14:02:26;;;;;;;1.70;0.30;;;18.20;99.90;;;;;;4954068;29;20047;-72
2023/04/28 14:04:52;;;;;;;2.22;0.75;;;18.30;99.90;;;;;;4964881;29;20034;-73
2023/04/28 14:07:18;;;;;;;4.68;0.70;;;18.30;99.90;;;;;;4964456;29;20047;-70
2023/04/28 14:09:44;;;;;;;2.33;0.80;;;18.40;99.90;;;;;;4960182;29;20029;-71
2023/04/28 14:12:10;;;;;;;1.63;0.32;;;18.50;99.90;;;;;;4966033;28;20042;-72
2023/04/28 14:14:35;;;;;;;1.90;0.30;;;18.50;99.90;;;;;;4966892;29;20344;-71
2023/04/28 14:17:02;;;;;;;1.40;0.30;;;18.40;99.90;;;;;;4953039;29;20102;-71
2023/04/28 14:19:28;;;;;;;0.90;0.17;;;18.30;99.90;;;;;;4967198;28;20049;-71
2023/04/28 14:21:54;;;;;;;2.63;0.50;;;18.20;99.90;;;;;;4967344;29;20028;-72
2023/04/28 14:24:20;;;;;;;5.40;0.60;;;18.10;99.90;;;;;;4967166;28;20035;-73
2023/04/28 14:26:46;;;;;;;1.90;0.40;;;18.10;99.90;;;;;;4953343;29;20097;-72
2023/04/28 14:29:12;;;;;;;2.30;0.70;;;18.00;99.90;;;;;;4967386;29;20035;-72
2023/04/28 14:31:38;;;;;;;2.60;0.70;;;17.90;99.90;;;;;;4966691;29;20015;-72
2023/04/28 14:34:04;;;;;;;2.08;0.60;;;17.90;99.90;;;;;;4967508;28;20035;-72
2023/04/28 14:36:32;;;;;;;3.35;0.70;;;17.90;99.90;;;;;;4967141;28;20024;-72
2023/04/28 14:38:57;;;;;;;2.85;0.73;;;17.90;99.90;;;;;;4967793;28;20043;-71
2023/04/28 14:41:23;;;;;;;4.55;0.77;;;18.10;99.90;;;;;;4967362;28;20335;-73
2023/04/28 14:43:49;;;;;;;2.40;0.52;;;18.50;99.90;;;;;;4967580;28;20353;-73
2023/04/28 14:46:18;;;;;;;2.42;0.60;;;18.90;99.90;;;;;;4966800;29;20070;-71
2023/04/28 14:48:44;;;;;;;1.60;0.40;;;19.10;99.90;;;;;;4966988;28;20050;-71
2023/04/28 14:51:10;;;;;;;1.05;0.35;;;19.30;99.90;;;;;;4966232;29;20019;-72
2023/04/28 14:53:35;;;;;;;1.65;0.50;;;19.60;99.90;;;;;;4966805;29;20300;-71
2023/04/28 14:56:04;;;;;;;1.77;0.60;;;19.90;99.90;;;;;;4954978;29;20083;-71
2023/04/28 14:58:29;;;;;;;2.58;0.68;;;20.10;99.90;;;;;;4964437;29;20054;-72
2023/04/28 15:00:55;;;;;;;2.10;0.50;;;20.30;99.90;;;;;;4966648;28;20039;-71
2023/04/28 15:03:21;;;;;;;3.40;0.88;;;20.30;99.90;;;;;;4951404;28;20127;-70
2023/04/28 15:05:48;;;;;;;2.10;0.77;;;20.00;99.90;;;;;;4946509;29;20059;-69
2023/04/28 15:08:13;;;;;;;1.60;0.70;;;19.80;99.90;;;;;;4946185;29;20039;-71
2023/04/28 15:10:39;;;;;;;3.45;1.13;;;19.70;99.90;;;;;;4960006;29;20031;-69
2023/04/28 15:13:06;;;;;;;2.53;0.68;;;19.60;99.90;;;;;;4954011;29;20031;-70
2023/04/28 15:15:32;;;;;;;2.33;1.02;;;19.30;99.90;;;;;;4948543;29;20034;-70
2023/04/28 15:17:59;;;;;;;2.53;0.70;;;19.00;99.90;;;;;;4953813;29;20031;-69
2023/04/28 15:20:29;;;;;;;1.87;0.83;;;18.90;99.90;;;;;;4945607;29;20047;-70
2023/04/28 15:22:55;;;;;;;1.65;0.40;;;18.70;99.90;;;;;;4945605;29;20250;-71
2023/04/28 15:25:21;;;;;;;1.42;0.30;;;18.60;99.90;;;;;;4946546;29;20095;-69
2023/04/28 15:27:49;;;;;;;1.05;0.30;;;18.40;99.90;;;;;;4947459;29;20030;-69
2023/04/28 15:30:15;;;;;;;1.65;0.50;;;18.50;99.90;;;;;;4947212;29;20067;-69
2023/04/28 15:32:42;;;;;;;1.15;0.30;;;18.30;99.90;;;;;;4946411;29;20487;-71
2023/04/28 15:35:09;;;;;;;0.95;0.20;;;18.20;99.90;;;;;;4947174;29;20031;-72
2023/04/28 15:37:43;;;;;;;1.40;0.20;;;18.10;99.90;;;;;;4946509;29;20040;-71
2023/04/28 15:40:11;;;;;;;1.98;0.30;;;18.00;99.90;;;;;;4953261;29;20019;-72
2023/04/28 15:42:37;;;;;;;0.80;0.20;;;18.00;99.90;;;;;;4948793;29;20028;-73
2023/04/28 15:45:04;;;;;;;1.15;0.30;;;17.70;99.90;;;;;;4946507;29;20043;-71
2023/04/28 15:47:29;;;;;;;3.75;0.43;;;17.40;99.90;;;;;;4946378;29;20352;-71
2023/04/28 15:49:57;;;;;;;0.38;0.10;;;17.30;99.90;;;;;;4946281;29;20040;-72
2023/04/28 15:52:23;;;;;;;0.75;0.20;;;17.20;99.90;;;;;;4946328;29;20333;-71
2023/04/28 15:54:49;;;;;;;1.10;0.30;;;17.10;99.90;;;;;;4946692;29;20035;-73
2023/04/28 15:57:15;;;;;;;1.33;0.30;;;17.00;99.90;;;;;;4953766;29;20038;-72
2023/04/28 15:59:40;;;;;;;0.93;0.30;;;17.00;99.90;;;;;;4952000;29;20032;-74
2023/04/28 16:02:06;;;;;;;1.67;0.50;;;17.20;99.90;;;;;;4952543;29;20150;-73
2023/04/28 16:04:32;;;;;;;1.27;0.40;;;17.40;99.90;;;;;;4964683;28;20039;-72
2023/04/28 16:07:01;;;;;;;1.00;0.30;;;17.60;99.90;;;;;;4965625;28;20046;-72
2023/04/28 16:09:28;;;;;;;1.08;0.30;;;17.50;99.90;;;;;;4963671;29;20041;-73
2023/04/28 16:11:56;;;;;;;3.25;0.40;;;17.40;99.90;;;;;;4965101;29;20046;-73
2023/04/28 16:14:22;;;;;;;1.27;0.40;;;17.30;99.90;;;;;;4964996;28;20038;-71
2023/04/28 16:16:48;;;;;;;1.08;0.28;;;17.30;99.90;;;;;;4964786;29;20069;-79
2023/04/28 16:19:14;;;;;;;3.03;0.40;;;17.30;99.90;;;;;;4965561;28;20331;-73
2023/04/28 16:21:40;;;;;;;1.75;0.32;;;17.20;99.90;;;;;;4964657;28;20042;-72
2023/04/28 16:24:06;;;;;;;1.50;0.47;;;17.10;99.90;;;;;;4965364;29;20027;-74
2023/04/28 16:26:33;;;;;;;1.70;0.93;;;17.00;99.90;;;;;;4964665;28;20031;-73
2023/04/28 16:28:58;;;;;;;2.97;0.60;;;17.00;99.90;;;;;;4964796;29;20049;-74
2023/04/28 16:31:24;;;;;;;2.78;0.60;;;16.90;99.90;;;;;;4964853;28;20292;-73
2023/04/28 16:33:51;;;;;;;2.95;0.70;;;16.70;99.90;;;;;;4964829;28;20325;-74
2023/04/28 16:36:17;;;;;;;3.85;0.90;;;16.60;99.90;;;;;;4964797;28;20043;-73
2023/04/28 16:38:44;;;;;;;2.72;0.90;;;16.60;99.90;;;;;;4964203;28;20030;-71
2023/04/28 16:41:10;;;;;;;3.53;1.20;;;16.50;99.90;;;;;;4964946;28;20053;-71
2023/04/28 16:43:37;;;;;;;2.75;1.13;;;16.60;99.90;;;;;;4964701;28;20027;-71
2023/04/28 16:46:04;;;;;;;5.55;4.20;;;16.60;99.90;;;;;;4964596;28;20335;-70
2023/04/28 16:48:29;;;;;;;4.40;2.20;;;16.50;99.90;;;;;;4963115;29;20428;-71
2023/04/28 16:50:55;;;;;;;6.13;2.72;;;16.60;99.90;;;;;;4963903;29;20035;-70
2023/04/28 16:53:21;;;;;;;4.63;1.65;;;16.70;99.90;;;;;;4959182;28;20063;-71
2023/04/28 16:55:47;;;;;;;2.40;1.10;;;16.80;99.90;;;;;;4944770;29;20051;-72
2023/04/28 16:58:13;;;;;;;5.68;1.58;;;16.90;99.90;;;;;;4960036;29;20059;-73
2023/04/28 17:00:38;;;;;;;2.42;0.80;;;16.80;99.90;;;;;;4964024;29;20090;-72
2023/04/28 17:03:04;;;;;;;2.25;0.98;;;16.80;99.90;;;;;;4949786;29;20043;-75
2023/04/28 17:05:33;;;;;;;2.00;0.60;;;16.90;99.90;;;;;;4945100;29;20027;-74
2023/04/28 17:07:59;;;;;;;2.47;0.57;;;16.80;99.90;;;;;;4945551;29;20031;-73
2023/04/28 17:10:24;;;;;;;2.67;0.68;;;16.90;99.90;;;;;;4939259;29;20318;-72
2023/04/28 17:12:51;;;;;;;2.30;0.65;;;16.90;99.90;;;;;;4925929;29;20238;-73
2023/04/28 17:15:17;;;;;;;3.45;0.98;;;17.00;99.90;;;;;;4936053;29;20262;-73
2023/04/28 17:17:46;;;;;;;2.42;0.90;;;17.10;99.90;;;;;;4925670;29;20064;-74
2023/04/28 17:20:15;;;;;;;1.20;0.50;;;17.20;99.90;;;;;;4926444;29;20030;-74
2023/04/28 17:22:42;;;;;;;2.08;0.63;;;17.30;99.90;;;;;;4909178;29;20032;-75
2023/04/28 17:25:09;;;;;;;4.10;0.85;;;17.60;99.90;;;;;;4926155;29;20345;-73
2023/04/28 17:27:35;;;;;;;2.60;0.70;;;17.70;99.90;;;;;;4925839;29;20044;-73
2023/04/28 17:30:00;;;;;;;3.25;0.93;;;17.90;99.90;;;;;;4926560;29;20107;-74
2023/04/28 17:32:29;;;;;;;3.90;1.42;;;18.10;99.90;;;;;;4909352;29;20246;-74
2023/04/28 17:34:55;;;;;;;3.63;1.88;;;18.20;99.90;;;;;;4926320;29;20048;-71
2023/04/28 17:37:22;;;;;;;3.58;1.48;;;18.50;99.90;;;;;;4926193;29;20116;-72
2023/04/28 17:39:50;;;;;;;3.25;1.10;;;18.70;99.90;;;;;;4925473;29;20337;-75
2023/04/28 17:42:17;;;;;;;3.80;1.20;;;18.80;99.90;;;;;;4932704;29;20091;-71
2023/04/28 17:44:42;;;;;;;2.47;0.93;;;18.80;99.90;;;;;;4944798;29;20032;-73
2023/04/28 17:47:08;;;;;;;2.55;0.95;;;18.70;99.90;;;;;;4946903;29;20107;-71
2023/04/28 17:49:34;;;;;;;3.38;1.00;;;18.50;99.90;;;;;;4948313;29;20023;-70